Terminal Aerodrome Forecast
Issued by NWS El Paso, TX

Home | Current Version | Previous Version | Text Only | Print | Product List | Glossary On
Versions: 1 2 3 4 5 6 7 8 9 10 11 12 13 14
895
FTUS44 KEPZ 260525
TAFELP
TAF
KELP 260525Z 2606/2706 19005KT P6SM SCT070 SCT120 BKN250
     FM261400 26007KT P6SM FEW080 SCT250
     FM262100 24008KT P6SM SCT080 SCT250=

USA.gov is the U.S. government's official web portal to all federal, state and local government web resources and services.